sensor_id;sensor_type;location;lat;lon;timestamp;P1;durP1;ratioP1;P2;durP2;ratioP2
37791;SDS011;29527;55.766;37.570;2023-07-13T00:01:51;2.92;;;2.00;;
37791;SDS011;29527;55.766;37.570;2023-07-13T00:04:17;5.20;;;2.00;;
37791;SDS011;29527;55.766;37.570;2023-07-13T00:06:45;2.55;;;2.25;;
37791;SDS011;29527;55.766;37.570;2023-07-13T00:09:12;5.43;;;2.10;;
37791;SDS011;29527;55.766;37.570;2023-07-13T00:11:39;2.45;;;2.03;;
37791;SDS011;29527;55.766;37.570;2023-07-13T00:14:05;4.60;;;2.10;;
37791;SDS011;29527;55.766;37.570;2023-07-13T00:16:33;3.83;;;2.10;;
37791;SDS011;29527;55.766;37.570;2023-07-13T00:19:00;2.58;;;2.10;;
37791;SDS011;29527;55.766;37.570;2023-07-13T00:21:25;3.78;;;1.95;;
37791;SDS011;29527;55.766;37.570;2023-07-13T00:23:52;3.67;;;2.33;;
37791;SDS011;29527;55.766;37.570;2023-07-13T00:26:17;3.38;;;2.35;;
37791;SDS011;29527;55.766;37.570;2023-07-13T00:28:43;2.97;;;2.35;;
37791;SDS011;29527;55.766;37.570;2023-07-13T00:31:09;4.75;;;2.40;;
37791;SDS011;29527;55.766;37.570;2023-07-13T00:33:36;5.22;;;2.38;;
37791;SDS011;29527;55.766;37.570;2023-07-13T00:36:02;4.82;;;2.55;;
37791;SDS011;29527;55.766;37.570;2023-07-13T00:38:28;3.33;;;2.38;;
37791;SDS011;29527;55.766;37.570;2023-07-13T00:40:54;4.75;;;2.50;;
37791;SDS011;29527;55.766;37.570;2023-07-13T00:43:20;3.15;;;2.30;;
37791;SDS011;29527;55.766;37.570;2023-07-13T00:48:14;3.30;;;2.45;;
37791;SDS011;29527;55.766;37.570;2023-07-13T00:50:44;4.55;;;2.85;;
37791;SDS011;29527;55.766;37.570;2023-07-13T00:53:13;3.15;;;2.67;;
37791;SDS011;29527;55.766;37.570;2023-07-13T00:55:39;3.80;;;2.47;;
37791;SDS011;29527;55.766;37.570;2023-07-13T00:58:05;7.25;;;2.60;;
37791;SDS011;29527;55.766;37.570;2023-07-13T01:00:32;2.60;;;2.17;;
37791;SDS011;29527;55.766;37.570;2023-07-13T01:03:00;2.90;;;2.47;;
37791;SDS011;29527;55.766;37.570;2023-07-13T01:05:29;7.82;;;2.70;;
37791;SDS011;29527;55.766;37.570;2023-07-13T01:07:57;3.42;;;2.58;;
37791;SDS011;29527;55.766;37.570;2023-07-13T01:10:24;3.35;;;2.40;;
37791;SDS011;29527;55.766;37.570;2023-07-13T01:12:50;3.42;;;2.55;;
37791;SDS011;29527;55.766;37.570;2023-07-13T01:18:23;3.03;;;2.53;;
37791;SDS011;29527;55.766;37.570;2023-07-13T01:23:21;6.13;;;2.80;;
37791;SDS011;29527;55.766;37.570;2023-07-13T01:25:47;5.05;;;2.67;;
37791;SDS011;29527;55.766;37.570;2023-07-13T01:28:13;5.47;;;2.80;;
37791;SDS011;29527;55.766;37.570;2023-07-13T01:30:39;4.68;;;2.65;;
37791;SDS011;29527;55.766;37.570;2023-07-13T01:33:07;5.57;;;2.80;;
37791;SDS011;29527;55.766;37.570;2023-07-13T01:35:35;3.00;;;2.70;;
37791;SDS011;29527;55.766;37.570;2023-07-13T01:38:01;4.35;;;2.60;;
37791;SDS011;29527;55.766;37.570;2023-07-13T01:40:28;4.75;;;2.53;;
37791;SDS011;29527;55.766;37.570;2023-07-13T01:42:54;3.70;;;2.65;;
37791;SDS011;29527;55.766;37.570;2023-07-13T01:45:20;5.57;;;2.65;;
37791;SDS011;29527;55.766;37.570;2023-07-13T01:47:46;5.60;;;2.75;;
37791;SDS011;29527;55.766;37.570;2023-07-13T01:50:11;5.70;;;2.53;;
37791;SDS011;29527;55.766;37.570;2023-07-13T01:52:55;6.38;;;2.80;;
37791;SDS011;29527;55.766;37.570;2023-07-13T01:55:21;5.78;;;2.50;;
37791;SDS011;29527;55.766;37.570;2023-07-13T01:57:47;8.38;;;2.60;;
37791;SDS011;29527;55.766;37.570;2023-07-13T02:00:14;3.38;;;2.55;;
37791;SDS011;29527;55.766;37.570;2023-07-13T02:02:40;5.82;;;2.80;;
37791;SDS011;29527;55.766;37.570;2023-07-13T02:05:06;3.50;;;2.58;;
37791;SDS011;29527;55.766;37.570;2023-07-13T02:07:32;2.53;;;2.20;;
37791;SDS011;29527;55.766;37.570;2023-07-13T02:09:58;4.93;;;2.80;;
37791;SDS011;29527;55.766;37.570;2023-07-13T02:12:23;4.00;;;2.70;;
37791;SDS011;29527;55.766;37.570;2023-07-13T02:14:49;4.13;;;2.88;;
37791;SDS011;29527;55.766;37.570;2023-07-13T02:17:15;6.65;;;2.78;;
37791;SDS011;29527;55.766;37.570;2023-07-13T02:19:41;3.75;;;2.70;;
37791;SDS011;29527;55.766;37.570;2023-07-13T02:22:06;4.47;;;2.42;;
37791;SDS011;29527;55.766;37.570;2023-07-13T02:24:32;4.47;;;2.72;;
37791;SDS011;29527;55.766;37.570;2023-07-13T02:26:57;4.25;;;2.67;;
37791;SDS011;29527;55.766;37.570;2023-07-13T02:29:23;5.00;;;2.70;;
37791;SDS011;29527;55.766;37.570;2023-07-13T02:31:48;3.28;;;2.58;;
37791;SDS011;29527;55.766;37.570;2023-07-13T02:34:14;3.45;;;2.67;;
37791;SDS011;29527;55.766;37.570;2023-07-13T02:36:39;4.28;;;2.63;;
37791;SDS011;29527;55.766;37.570;2023-07-13T02:39:05;7.45;;;2.42;;
37791;SDS011;29527;55.766;37.570;2023-07-13T02:41:31;3.75;;;2.40;;
37791;SDS011;29527;55.766;37.570;2023-07-13T02:43:57;4.72;;;2.60;;
37791;SDS011;29527;55.766;37.570;2023-07-13T02:46:29;4.13;;;2.72;;
37791;SDS011;29527;55.766;37.570;2023-07-13T02:48:55;5.75;;;2.53;;
37791;SDS011;29527;55.766;37.570;2023-07-13T02:51:21;3.78;;;2.45;;
37791;SDS011;29527;55.766;37.570;2023-07-13T02:53:46;4.57;;;2.60;;
37791;SDS011;29527;55.766;37.570;2023-07-13T02:56:12;4.90;;;2.90;;
37791;SDS011;29527;55.766;37.570;2023-07-13T02:58:37;4.75;;;2.65;;
37791;SDS011;29527;55.766;37.570;2023-07-13T03:01:11;6.07;;;2.63;;
37791;SDS011;29527;55.766;37.570;2023-07-13T03:03:37;5.15;;;2.50;;
37791;SDS011;29527;55.766;37.570;2023-07-13T03:06:03;4.70;;;2.50;;
37791;SDS011;29527;55.766;37.570;2023-07-13T03:08:32;4.10;;;2.58;;
37791;SDS011;29527;55.766;37.570;2023-07-13T03:10:59;5.38;;;2.40;;
37791;SDS011;29527;55.766;37.570;2023-07-13T03:13:29;5.07;;;2.63;;
37791;SDS011;29527;55.766;37.570;2023-07-13T03:15:54;5.10;;;2.83;;
37791;SDS011;29527;55.766;37.570;2023-07-13T03:18:20;4.03;;;2.80;;
37791;SDS011;29527;55.766;37.570;2023-07-13T03:20:45;5.82;;;2.63;;
37791;SDS011;29527;55.766;37.570;2023-07-13T03:23:11;4.55;;;2.45;;
37791;SDS011;29527;55.766;37.570;2023-07-13T03:25:36;5.15;;;2.58;;
37791;SDS011;29527;55.766;37.570;2023-07-13T03:28:02;3.47;;;2.47;;
37791;SDS011;29527;55.766;37.570;2023-07-13T03:30:28;6.60;;;2.60;;
37791;SDS011;29527;55.766;37.570;2023-07-13T03:32:53;6.38;;;2.50;;
37791;SDS011;29527;55.766;37.570;2023-07-13T03:35:19;3.22;;;2.40;;
37791;SDS011;29527;55.766;37.570;2023-07-13T03:37:44;5.43;;;2.50;;
37791;SDS011;29527;55.766;37.570;2023-07-13T03:40:10;5.57;;;3.08;;
37791;SDS011;29527;55.766;37.570;2023-07-13T03:42:36;5.10;;;2.75;;
37791;SDS011;29527;55.766;37.570;2023-07-13T03:45:01;3.03;;;2.70;;
37791;SDS011;29527;55.766;37.570;2023-07-13T03:47:29;5.43;;;2.38;;
37791;SDS011;29527;55.766;37.570;2023-07-13T03:49:55;3.22;;;2.60;;
37791;SDS011;29527;55.766;37.570;2023-07-13T03:52:20;9.20;;;3.00;;
37791;SDS011;29527;55.766;37.570;2023-07-13T03:54:46;4.68;;;2.33;;
37791;SDS011;29527;55.766;37.570;2023-07-13T03:57:11;3.28;;;2.47;;
37791;SDS011;29527;55.766;37.570;2023-07-13T03:59:37;7.03;;;2.38;;
37791;SDS011;29527;55.766;37.570;2023-07-13T04:02:02;7.22;;;2.75;;
37791;SDS011;29527;55.766;37.570;2023-07-13T04:04:29;5.00;;;2.53;;
37791;SDS011;29527;55.766;37.570;2023-07-13T04:06:57;5.65;;;2.70;;
37791;SDS011;29527;55.766;37.570;2023-07-13T04:09:23;5.38;;;2.53;;
37791;SDS011;29527;55.766;37.570;2023-07-13T04:11:50;4.28;;;2.50;;
37791;SDS011;29527;55.766;37.570;2023-07-13T04:14:15;4.82;;;2.70;;
37791;SDS011;29527;55.766;37.570;2023-07-13T04:16:41;3.42;;;2.40;;
37791;SDS011;29527;55.766;37.570;2023-07-13T04:19:08;8.02;;;2.67;;
37791;SDS011;29527;55.766;37.570;2023-07-13T04:21:35;8.82;;;2.97;;
37791;SDS011;29527;55.766;37.570;2023-07-13T04:24:02;3.30;;;2.92;;
37791;SDS011;29527;55.766;37.570;2023-07-13T04:26:29;6.60;;;2.40;;
37791;SDS011;29527;55.766;37.570;2023-07-13T04:28:55;5.75;;;2.67;;
37791;SDS011;29527;55.766;37.570;2023-07-13T04:31:22;6.82;;;2.83;;
37791;SDS011;29527;55.766;37.570;2023-07-13T04:33:48;3.63;;;2.72;;
37791;SDS011;29527;55.766;37.570;2023-07-13T04:36:14;5.80;;;2.60;;
37791;SDS011;29527;55.766;37.570;2023-07-13T04:38:41;5.95;;;2.90;;
37791;SDS011;29527;55.766;37.570;2023-07-13T04:41:07;3.40;;;2.55;;
37791;SDS011;29527;55.766;37.570;2023-07-13T04:43:34;7.32;;;2.70;;
37791;SDS011;29527;55.766;37.570;2023-07-13T04:46:03;6.57;;;2.70;;
37791;SDS011;29527;55.766;37.570;2023-07-13T04:48:30;4.68;;;2.72;;
37791;SDS011;29527;55.766;37.570;2023-07-13T04:50:56;4.13;;;2.60;;
37791;SDS011;29527;55.766;37.570;2023-07-13T04:53:23;4.25;;;2.78;;
37791;SDS011;29527;55.766;37.570;2023-07-13T04:55:48;6.28;;;2.67;;
37791;SDS011;29527;55.766;37.570;2023-07-13T04:58:14;5.43;;;2.80;;
37791;SDS011;29527;55.766;37.570;2023-07-13T05:00:39;5.18;;;3.00;;
37791;SDS011;29527;55.766;37.570;2023-07-13T05:03:05;5.63;;;2.80;;
37791;SDS011;29527;55.766;37.570;2023-07-13T05:05:31;6.78;;;2.75;;
37791;SDS011;29527;55.766;37.570;2023-07-13T05:07:57;3.85;;;2.83;;
37791;SDS011;29527;55.766;37.570;2023-07-13T05:10:22;4.57;;;2.63;;
37791;SDS011;29527;55.766;37.570;2023-07-13T05:12:49;8.15;;;2.75;;
37791;SDS011;29527;55.766;37.570;2023-07-13T05:15:15;5.05;;;2.50;;
37791;SDS011;29527;55.766;37.570;2023-07-13T05:17:40;7.80;;;2.72;;
37791;SDS011;29527;55.766;37.570;2023-07-13T05:20:07;5.00;;;2.70;;
37791;SDS011;29527;55.766;37.570;2023-07-13T05:22:34;6.45;;;2.50;;
37791;SDS011;29527;55.766;37.570;2023-07-13T05:25:03;4.68;;;2.50;;
37791;SDS011;29527;55.766;37.570;2023-07-13T05:27:30;5.88;;;2.55;;
37791;SDS011;29527;55.766;37.570;2023-07-13T05:29:56;4.63;;;2.33;;
37791;SDS011;29527;55.766;37.570;2023-07-13T05:32:22;5.70;;;2.78;;
37791;SDS011;29527;55.766;37.570;2023-07-13T05:34:47;5.35;;;2.50;;
37791;SDS011;29527;55.766;37.570;2023-07-13T05:37:13;4.80;;;2.33;;
37791;SDS011;29527;55.766;37.570;2023-07-13T05:39:39;6.90;;;2.65;;
37791;SDS011;29527;55.766;37.570;2023-07-13T05:42:05;5.40;;;2.40;;
37791;SDS011;29527;55.766;37.570;2023-07-13T05:44:31;4.55;;;2.40;;
37791;SDS011;29527;55.766;37.570;2023-07-13T05:46:56;3.53;;;2.25;;
37791;SDS011;29527;55.766;37.570;2023-07-13T05:49:22;6.70;;;2.22;;
37791;SDS011;29527;55.766;37.570;2023-07-13T05:51:48;4.68;;;2.30;;
37791;SDS011;29527;55.766;37.570;2023-07-13T05:54:13;3.80;;;2.15;;
37791;SDS011;29527;55.766;37.570;2023-07-13T05:56:39;7.35;;;2.50;;
37791;SDS011;29527;55.766;37.570;2023-07-13T05:59:05;4.65;;;2.42;;
37791;SDS011;29527;55.766;37.570;2023-07-13T06:01:30;8.27;;;2.50;;
37791;SDS011;29527;55.766;37.570;2023-07-13T06:03:56;6.07;;;1.98;;
37791;SDS011;29527;55.766;37.570;2023-07-13T06:06:22;5.32;;;2.53;;
37791;SDS011;29527;55.766;37.570;2023-07-13T06:08:48;4.65;;;2.22;;
37791;SDS011;29527;55.766;37.570;2023-07-13T06:11:15;7.72;;;2.10;;
37791;SDS011;29527;55.766;37.570;2023-07-13T06:13:43;5.53;;;2.10;;
37791;SDS011;29527;55.766;37.570;2023-07-13T06:16:08;6.28;;;2.30;;
37791;SDS011;29527;55.766;37.570;2023-07-13T06:18:35;4.60;;;2.28;;
37791;SDS011;29527;55.766;37.570;2023-07-13T06:21:05;6.80;;;2.40;;
37791;SDS011;29527;55.766;37.570;2023-07-13T06:23:42;4.10;;;2.15;;
37791;SDS011;29527;55.766;37.570;2023-07-13T06:26:08;4.35;;;1.83;;
37791;SDS011;29527;55.766;37.570;2023-07-13T06:28:35;4.55;;;1.95;;
37791;SDS011;29527;55.766;37.570;2023-07-13T06:31:01;7.97;;;2.08;;
37791;SDS011;29527;55.766;37.570;2023-07-13T06:33:29;8.63;;;2.63;;
37791;SDS011;29527;55.766;37.570;2023-07-13T06:35:54;4.45;;;1.90;;
37791;SDS011;29527;55.766;37.570;2023-07-13T06:38:21;3.45;;;1.95;;
37791;SDS011;29527;55.766;37.570;2023-07-13T06:40:47;10.63;;;2.38;;
37791;SDS011;29527;55.766;37.570;2023-07-13T06:43:12;5.25;;;2.10;;
37791;SDS011;29527;55.766;37.570;2023-07-13T06:45:42;5.07;;;2.00;;
37791;SDS011;29527;55.766;37.570;2023-07-13T06:48:19;5.70;;;2.25;;
37791;SDS011;29527;55.766;37.570;2023-07-13T06:50:45;5.63;;;2.20;;
37791;SDS011;29527;55.766;37.570;2023-07-13T06:53:13;4.55;;;1.83;;
37791;SDS011;29527;55.766;37.570;2023-07-13T06:55:38;3.47;;;1.98;;
37791;SDS011;29527;55.766;37.570;2023-07-13T06:58:05;2.53;;;1.90;;
37791;SDS011;29527;55.766;37.570;2023-07-13T07:00:31;4.53;;;2.00;;
37791;SDS011;29527;55.766;37.570;2023-07-13T07:02:57;3.67;;;2.10;;
37791;SDS011;29527;55.766;37.570;2023-07-13T07:05:22;3.00;;;1.95;;
37791;SDS011;29527;55.766;37.570;2023-07-13T07:07:51;4.65;;;2.17;;
37791;SDS011;29527;55.766;37.570;2023-07-13T07:10:19;4.18;;;2.00;;
37791;SDS011;29527;55.766;37.570;2023-07-13T07:12:45;6.88;;;2.30;;
37791;SDS011;29527;55.766;37.570;2023-07-13T07:15:11;6.88;;;2.60;;
37791;SDS011;29527;55.766;37.570;2023-07-13T07:17:38;5.95;;;2.90;;
37791;SDS011;29527;55.766;37.570;2023-07-13T07:20:04;4.82;;;2.08;;
37791;SDS011;29527;55.766;37.570;2023-07-13T07:22:30;7.03;;;2.55;;
37791;SDS011;29527;55.766;37.570;2023-07-13T07:24:56;2.83;;;2.50;;
37791;SDS011;29527;55.766;37.570;2023-07-13T07:27:23;5.07;;;2.28;;
37791;SDS011;29527;55.766;37.570;2023-07-13T07:29:49;5.28;;;1.90;;
37791;SDS011;29527;55.766;37.570;2023-07-13T07:32:15;5.78;;;2.55;;
37791;SDS011;29527;55.766;37.570;2023-07-13T07:34:40;4.95;;;2.10;;
37791;SDS011;29527;55.766;37.570;2023-07-13T07:37:06;5.55;;;2.20;;
37791;SDS011;29527;55.766;37.570;2023-07-13T07:39:31;10.75;;;2.78;;
37791;SDS011;29527;55.766;37.570;2023-07-13T07:41:57;6.22;;;2.60;;
37791;SDS011;29527;55.766;37.570;2023-07-13T07:44:23;5.20;;;2.50;;
37791;SDS011;29527;55.766;37.570;2023-07-13T07:46:49;4.18;;;2.30;;
37791;SDS011;29527;55.766;37.570;2023-07-13T07:49:15;3.72;;;2.75;;
37791;SDS011;29527;55.766;37.570;2023-07-13T07:51:40;6.40;;;2.42;;
37791;SDS011;29527;55.766;37.570;2023-07-13T07:54:06;4.90;;;2.47;;
37791;SDS011;29527;55.766;37.570;2023-07-13T07:56:32;5.18;;;2.42;;
37791;SDS011;29527;55.766;37.570;2023-07-13T07:58:58;5.75;;;2.53;;
37791;SDS011;29527;55.766;37.570;2023-07-13T08:01:24;4.53;;;2.55;;
37791;SDS011;29527;55.766;37.570;2023-07-13T08:03:49;5.65;;;2.92;;
37791;SDS011;29527;55.766;37.570;2023-07-13T08:06:15;4.35;;;2.45;;
37791;SDS011;29527;55.766;37.570;2023-07-13T08:08:42;7.55;;;2.78;;
37791;SDS011;29527;55.766;37.570;2023-07-13T08:11:07;4.22;;;2.53;;
37791;SDS011;29527;55.766;37.570;2023-07-13T08:13:34;4.72;;;2.42;;
37791;SDS011;29527;55.766;37.570;2023-07-13T08:16:00;3.92;;;2.78;;
37791;SDS011;29527;55.766;37.570;2023-07-13T08:18:26;8.32;;;3.20;;
37791;SDS011;29527;55.766;37.570;2023-07-13T08:20:55;9.77;;;2.88;;
37791;SDS011;29527;55.766;37.570;2023-07-13T08:23:22;6.53;;;2.90;;
37791;SDS011;29527;55.766;37.570;2023-07-13T08:25:51;6.80;;;2.55;;
37791;SDS011;29527;55.766;37.570;2023-07-13T08:28:18;6.38;;;2.72;;
37791;SDS011;29527;55.766;37.570;2023-07-13T08:30:45;4.90;;;3.10;;
37791;SDS011;29527;55.766;37.570;2023-07-13T08:33:20;7.05;;;3.17;;
37791;SDS011;29527;55.766;37.570;2023-07-13T08:35:49;6.45;;;3.13;;
37791;SDS011;29527;55.766;37.570;2023-07-13T08:38:15;8.27;;;2.88;;
37791;SDS011;29527;55.766;37.570;2023-07-13T08:40:42;7.15;;;2.78;;
37791;SDS011;29527;55.766;37.570;2023-07-13T08:43:09;2.80;;;2.30;;
37791;SDS011;29527;55.766;37.570;2023-07-13T08:48:19;6.93;;;2.50;;
37791;SDS011;29527;55.766;37.570;2023-07-13T08:50:52;7.88;;;2.80;;
37791;SDS011;29527;55.766;37.570;2023-07-13T08:53:23;5.88;;;3.00;;
37791;SDS011;29527;55.766;37.570;2023-07-13T08:55:57;7.30;;;3.08;;
37791;SDS011;29527;55.766;37.570;2023-07-13T08:58:24;8.20;;;2.80;;
37791;SDS011;29527;55.766;37.570;2023-07-13T09:06:22;6.57;;;3.13;;
37791;SDS011;29527;55.766;37.570;2023-07-13T09:08:58;5.45;;;3.22;;
37791;SDS011;29527;55.766;37.570;2023-07-13T09:14:14;8.65;;;3.00;;
37791;SDS011;29527;55.766;37.570;2023-07-13T09:17:50;6.82;;;3.10;;
37791;SDS011;29527;55.766;37.570;2023-07-13T09:22:44;7.10;;;2.92;;
37791;SDS011;29527;55.766;37.570;2023-07-13T09:25:29;5.05;;;3.13;;
37791;SDS011;29527;55.766;37.570;2023-07-13T09:27:59;6.68;;;3.35;;
37791;SDS011;29527;55.766;37.570;2023-07-13T09:30:56;5.47;;;3.55;;
37791;SDS011;29527;55.766;37.570;2023-07-13T09:33:29;6.55;;;3.60;;
37791;SDS011;29527;55.766;37.570;2023-07-13T09:35:56;7.65;;;3.05;;
37791;SDS011;29527;55.766;37.570;2023-07-13T09:38:25;7.78;;;3.53;;
37791;SDS011;29527;55.766;37.570;2023-07-13T09:44:16;10.77;;;3.90;;
37791;SDS011;29527;55.766;37.570;2023-07-13T09:46:54;7.70;;;3.40;;
37791;SDS011;29527;55.766;37.570;2023-07-13T09:49:24;6.30;;;3.50;;
37791;SDS011;29527;55.766;37.570;2023-07-13T09:52:00;13.00;;;3.70;;
37791;SDS011;29527;55.766;37.570;2023-07-13T09:54:28;7.15;;;3.67;;
37791;SDS011;29527;55.766;37.570;2023-07-13T09:56:58;8.85;;;4.15;;
37791;SDS011;29527;55.766;37.570;2023-07-13T09:59:26;6.82;;;3.60;;
37791;SDS011;29527;55.766;37.570;2023-07-13T10:01:54;6.70;;;3.67;;
37791;SDS011;29527;55.766;37.570;2023-07-13T10:04:22;9.23;;;3.95;;
37791;SDS011;29527;55.766;37.570;2023-07-13T10:07:03;5.32;;;3.60;;
37791;SDS011;29527;55.766;37.570;2023-07-13T10:09:32;5.45;;;3.58;;
37791;SDS011;29527;55.766;37.570;2023-07-13T10:11:58;7.05;;;3.35;;
37791;SDS011;29527;55.766;37.570;2023-07-13T10:14:23;5.65;;;3.47;;
37791;SDS011;29527;55.766;37.570;2023-07-13T10:16:57;5.47;;;3.90;;
37791;SDS011;29527;55.766;37.570;2023-07-13T10:19:29;6.00;;;3.05;;
37791;SDS011;29527;55.766;37.570;2023-07-13T10:21:59;6.40;;;3.50;;
37791;SDS011;29527;55.766;37.570;2023-07-13T10:24:27;10.32;;;3.05;;
37791;SDS011;29527;55.766;37.570;2023-07-13T10:32:35;7.13;;;4.18;;
37791;SDS011;29527;55.766;37.570;2023-07-13T10:35:01;9.80;;;7.70;;
37791;SDS011;29527;55.766;37.570;2023-07-13T10:37:36;6.38;;;3.20;;
37791;SDS011;29527;55.766;37.570;2023-07-13T10:40:16;8.30;;;4.80;;
37791;SDS011;29527;55.766;37.570;2023-07-13T10:42:49;7.57;;;3.80;;
37791;SDS011;29527;55.766;37.570;2023-07-13T10:45:20;7.13;;;3.90;;
37791;SDS011;29527;55.766;37.570;2023-07-13T10:47:48;7.18;;;4.38;;
37791;SDS011;29527;55.766;37.570;2023-07-13T10:50:25;7.47;;;3.83;;
37791;SDS011;29527;55.766;37.570;2023-07-13T10:53:03;8.35;;;4.15;;
37791;SDS011;29527;55.766;37.570;2023-07-13T10:58:21;6.30;;;4.20;;
37791;SDS011;29527;55.766;37.570;2023-07-13T11:00:48;7.13;;;3.33;;
37791;SDS011;29527;55.766;37.570;2023-07-13T11:03:19;7.50;;;4.07;;
37791;SDS011;29527;55.766;37.570;2023-07-13T11:05:50;8.50;;;3.72;;
37791;SDS011;29527;55.766;37.570;2023-07-13T11:10:55;7.07;;;3.50;;
37791;SDS011;29527;55.766;37.570;2023-07-13T11:16:58;10.18;;;3.63;;
37791;SDS011;29527;55.766;37.570;2023-07-13T11:32:49;11.15;;;3.72;;
37791;SDS011;29527;55.766;37.570;2023-07-13T11:35:19;5.95;;;3.42;;
37791;SDS011;29527;55.766;37.570;2023-07-13T11:37:51;6.57;;;3.85;;
37791;SDS011;29527;55.766;37.570;2023-07-13T11:40:17;7.40;;;3.38;;
37791;SDS011;29527;55.766;37.570;2023-07-13T11:42:44;5.53;;;3.67;;
37791;SDS011;29527;55.766;37.570;2023-07-13T11:45:20;8.85;;;3.70;;
37791;SDS011;29527;55.766;37.570;2023-07-13T11:47:50;8.55;;;3.70;;
37791;SDS011;29527;55.766;37.570;2023-07-13T11:50:18;7.32;;;4.03;;
37791;SDS011;29527;55.766;37.570;2023-07-13T11:52:46;7.65;;;4.05;;
37791;SDS011;29527;55.766;37.570;2023-07-13T11:55:14;10.65;;;4.30;;
37791;SDS011;29527;55.766;37.570;2023-07-13T11:57:49;8.50;;;4.20;;
37791;SDS011;29527;55.766;37.570;2023-07-13T12:00:21;8.23;;;3.92;;
37791;SDS011;29527;55.766;37.570;2023-07-13T12:02:49;5.13;;;4.07;;
37791;SDS011;29527;55.766;37.570;2023-07-13T12:05:18;9.63;;;5.28;;
37791;SDS011;29527;55.766;37.570;2023-07-13T12:07:45;8.05;;;5.10;;
37791;SDS011;29527;55.766;37.570;2023-07-13T12:13:02;6.50;;;4.15;;
37791;SDS011;29527;55.766;37.570;2023-07-13T12:15:33;11.27;;;4.43;;
37791;SDS011;29527;55.766;37.570;2023-07-13T12:18:13;5.65;;;3.72;;
37791;SDS011;29527;55.766;37.570;2023-07-13T12:20:40;8.02;;;5.00;;
37791;SDS011;29527;55.766;37.570;2023-07-13T12:23:06;8.95;;;4.82;;
37791;SDS011;29527;55.766;37.570;2023-07-13T12:25:47;6.53;;;4.13;;
37791;SDS011;29527;55.766;37.570;2023-07-13T12:28:22;9.70;;;5.07;;
37791;SDS011;29527;55.766;37.570;2023-07-13T12:31:06;8.10;;;4.50;;
37791;SDS011;29527;55.766;37.570;2023-07-13T12:33:47;8.68;;;5.35;;
37791;SDS011;29527;55.766;37.570;2023-07-13T12:36:12;6.40;;;4.43;;
37791;SDS011;29527;55.766;37.570;2023-07-13T12:38:38;6.93;;;4.47;;
37791;SDS011;29527;55.766;37.570;2023-07-13T12:41:05;9.07;;;4.28;;
37791;SDS011;29527;55.766;37.570;2023-07-13T12:43:35;10.35;;;4.47;;
37791;SDS011;29527;55.766;37.570;2023-07-13T12:46:05;6.07;;;3.83;;
37791;SDS011;29527;55.766;37.570;2023-07-13T12:48:47;5.93;;;3.50;;
37791;SDS011;29527;55.766;37.570;2023-07-13T12:51:15;5.90;;;3.60;;
37791;SDS011;29527;55.766;37.570;2023-07-13T12:53:42;5.72;;;3.67;;
37791;SDS011;29527;55.766;37.570;2023-07-13T12:56:15;9.98;;;3.88;;
37791;SDS011;29527;55.766;37.570;2023-07-13T12:58:46;12.40;;;4.30;;
37791;SDS011;29527;55.766;37.570;2023-07-13T13:01:15;7.50;;;3.83;;
37791;SDS011;29527;55.766;37.570;2023-07-13T13:03:46;10.98;;;4.35;;
37791;SDS011;29527;55.766;37.570;2023-07-13T13:08:48;8.63;;;4.30;;
37791;SDS011;29527;55.766;37.570;2023-07-13T13:11:16;10.35;;;4.30;;
37791;SDS011;29527;55.766;37.570;2023-07-13T13:13:48;9.13;;;4.95;;
37791;SDS011;29527;55.766;37.570;2023-07-13T13:18:45;8.13;;;4.30;;
37791;SDS011;29527;55.766;37.570;2023-07-13T13:21:11;8.70;;;4.35;;
37791;SDS011;29527;55.766;37.570;2023-07-13T13:23:37;6.40;;;4.53;;
37791;SDS011;29527;55.766;37.570;2023-07-13T13:26:03;10.30;;;5.43;;
37791;SDS011;29527;55.766;37.570;2023-07-13T13:28:33;7.50;;;5.18;;
37791;SDS011;29527;55.766;37.570;2023-07-13T13:30:58;6.32;;;4.53;;
37791;SDS011;29527;55.766;37.570;2023-07-13T13:33:24;8.70;;;4.40;;
37791;SDS011;29527;55.766;37.570;2023-07-13T13:35:49;11.05;;;4.63;;
37791;SDS011;29527;55.766;37.570;2023-07-13T13:38:16;8.35;;;4.55;;
37791;SDS011;29527;55.766;37.570;2023-07-13T13:40:45;8.50;;;4.28;;
37791;SDS011;29527;55.766;37.570;2023-07-13T13:43:15;7.30;;;4.47;;
37791;SDS011;29527;55.766;37.570;2023-07-13T13:45:52;12.10;;;4.32;;
37791;SDS011;29527;55.766;37.570;2023-07-13T13:48:32;6.85;;;3.72;;
37791;SDS011;29527;55.766;37.570;2023-07-13T13:51:00;8.05;;;4.25;;
37791;SDS011;29527;55.766;37.570;2023-07-13T13:53:29;7.65;;;4.07;;
37791;SDS011;29527;55.766;37.570;2023-07-13T13:55:54;7.70;;;4.10;;
37791;SDS011;29527;55.766;37.570;2023-07-13T13:58:20;6.25;;;3.88;;
37791;SDS011;29527;55.766;37.570;2023-07-13T14:00:45;8.40;;;3.88;;
37791;SDS011;29527;55.766;37.570;2023-07-13T14:03:15;10.07;;;4.45;;
37791;SDS011;29527;55.766;37.570;2023-07-13T14:05:43;7.80;;;4.30;;
37791;SDS011;29527;55.766;37.570;2023-07-13T14:08:16;7.18;;;4.75;;
37791;SDS011;29527;55.766;37.570;2023-07-13T14:10:48;12.73;;;4.88;;
37791;SDS011;29527;55.766;37.570;2023-07-13T14:13:17;8.55;;;4.25;;
37791;SDS011;29527;55.766;37.570;2023-07-13T14:16:27;7.30;;;4.35;;
37791;SDS011;29527;55.766;37.570;2023-07-13T14:18:59;9.02;;;4.97;;
37791;SDS011;29527;55.766;37.570;2023-07-13T14:21:26;11.43;;;4.55;;
37791;SDS011;29527;55.766;37.570;2023-07-13T14:23:53;11.30;;;4.80;;
37791;SDS011;29527;55.766;37.570;2023-07-13T14:28:49;11.40;;;5.60;;
37791;SDS011;29527;55.766;37.570;2023-07-13T14:31:18;9.25;;;4.65;;
37791;SDS011;29527;55.766;37.570;2023-07-13T14:33:44;10.05;;;4.97;;
37791;SDS011;29527;55.766;37.570;2023-07-13T14:38:47;10.45;;;5.18;;
37791;SDS011;29527;55.766;37.570;2023-07-13T14:41:26;8.60;;;4.43;;
37791;SDS011;29527;55.766;37.570;2023-07-13T14:43:52;8.95;;;4.43;;
37791;SDS011;29527;55.766;37.570;2023-07-13T14:46:29;10.00;;;5.30;;
37791;SDS011;29527;55.766;37.570;2023-07-13T14:52:15;11.65;;;4.53;;
37791;SDS011;29527;55.766;37.570;2023-07-13T14:54:43;9.75;;;4.50;;
37791;SDS011;29527;55.766;37.570;2023-07-13T14:57:12;6.90;;;4.18;;
37791;SDS011;29527;55.766;37.570;2023-07-13T14:59:38;10.73;;;4.18;;
37791;SDS011;29527;55.766;37.570;2023-07-13T15:02:14;13.10;;;5.10;;
37791;SDS011;29527;55.766;37.570;2023-07-13T15:04:47;10.95;;;4.43;;
37791;SDS011;29527;55.766;37.570;2023-07-13T15:07:13;11.43;;;4.60;;
37791;SDS011;29527;55.766;37.570;2023-07-13T15:09:41;10.38;;;4.57;;
37791;SDS011;29527;55.766;37.570;2023-07-13T15:12:07;9.73;;;5.10;;
37791;SDS011;29527;55.766;37.570;2023-07-13T15:14:32;8.73;;;4.47;;
37791;SDS011;29527;55.766;37.570;2023-07-13T15:16:58;7.55;;;4.43;;
37791;SDS011;29527;55.766;37.570;2023-07-13T15:19:24;10.00;;;4.80;;
37791;SDS011;29527;55.766;37.570;2023-07-13T15:21:51;8.43;;;4.53;;
37791;SDS011;29527;55.766;37.570;2023-07-13T15:24:22;9.63;;;4.32;;
37791;SDS011;29527;55.766;37.570;2023-07-13T15:26:48;7.88;;;4.38;;
37791;SDS011;29527;55.766;37.570;2023-07-13T15:29:15;7.75;;;4.10;;
37791;SDS011;29527;55.766;37.570;2023-07-13T15:31:41;11.23;;;5.00;;
37791;SDS011;29527;55.766;37.570;2023-07-13T15:34:14;12.43;;;5.03;;
37791;SDS011;29527;55.766;37.570;2023-07-13T15:36:44;7.43;;;4.63;;
37791;SDS011;29527;55.766;37.570;2023-07-13T15:39:13;10.38;;;5.18;;
37791;SDS011;29527;55.766;37.570;2023-07-13T15:41:41;9.60;;;4.85;;
37791;SDS011;29527;55.766;37.570;2023-07-13T15:44:19;15.30;;;6.10;;
37791;SDS011;29527;55.766;37.570;2023-07-13T15:46:48;8.48;;;4.78;;
37791;SDS011;29527;55.766;37.570;2023-07-13T15:49:15;11.85;;;5.45;;